sensor_id;sensor_type;location;lat;lon;timestamp;P1;durP1;ratioP1;P2;durP2;ratioP2
68985;SDS011;56035;37.534;-122.308;2023-03-13T00:01:48;0.77;;;0.10;;
68985;SDS011;56035;37.534;-122.308;2023-03-13T00:05:14;0.20;;;0.00;;
68985;SDS011;56035;37.534;-122.308;2023-03-13T00:08:39;0.45;;;0.10;;
68985;SDS011;56035;37.534;-122.308;2023-03-13T00:12:04;0.00;;;0.00;;
68985;SDS011;56035;37.534;-122.308;2023-03-13T00:15:29;0.40;;;0.10;;
68985;SDS011;56035;37.534;-122.308;2023-03-13T00:18:55;0.10;;;0.00;;
68985;SDS011;56035;37.534;-122.308;2023-03-13T00:22:20;0.83;;;0.10;;
68985;SDS011;56035;37.534;-122.308;2023-03-13T00:25:44;0.10;;;0.10;;
68985;SDS011;56035;37.534;-122.308;2023-03-13T00:29:09;0.08;;;0.00;;
68985;SDS011;56035;37.534;-122.308;2023-03-13T00:32:39;0.10;;;0.10;;
68985;SDS011;56035;37.534;-122.308;2023-03-13T00:36:24;0.50;;;0.03;;
68985;SDS011;56035;37.534;-122.308;2023-03-13T00:39:49;2.37;;;0.10;;
68985;SDS011;56035;37.534;-122.308;2023-03-13T00:43:14;0.67;;;0.10;;
68985;SDS011;56035;37.534;-122.308;2023-03-13T00:46:39;0.60;;;0.10;;
68985;SDS011;56035;37.534;-122.308;2023-03-13T00:50:04;0.80;;;0.10;;
68985;SDS011;56035;37.534;-122.308;2023-03-13T00:53:30;1.83;;;0.10;;
68985;SDS011;56035;37.534;-122.308;2023-03-13T00:56:55;0.98;;;0.20;;
68985;SDS011;56035;37.534;-122.308;2023-03-13T01:00:19;1.53;;;0.20;;
68985;SDS011;56035;37.534;-122.308;2023-03-13T01:03:47;1.13;;;0.20;;
68985;SDS011;56035;37.534;-122.308;2023-03-13T01:07:12;0.80;;;0.30;;
68985;SDS011;56035;37.534;-122.308;2023-03-13T01:10:37;0.90;;;0.40;;
68985;SDS011;56035;37.534;-122.308;2023-03-13T01:14:05;0.30;;;0.10;;
68985;SDS011;56035;37.534;-122.308;2023-03-13T01:17:30;0.63;;;0.40;;
68985;SDS011;56035;37.534;-122.308;2023-03-13T01:20:54;0.50;;;0.20;;
68985;SDS011;56035;37.534;-122.308;2023-03-13T01:24:19;1.30;;;0.20;;
68985;SDS011;56035;37.534;-122.308;2023-03-13T01:27:44;0.30;;;0.10;;
68985;SDS011;56035;37.534;-122.308;2023-03-13T01:31:12;1.80;;;0.17;;
68985;SDS011;56035;37.534;-122.308;2023-03-13T01:34:37;0.53;;;0.10;;
68985;SDS011;56035;37.534;-122.308;2023-03-13T01:38:02;0.63;;;0.10;;
68985;SDS011;56035;37.534;-122.308;2023-03-13T01:41:27;0.10;;;0.00;;
68985;SDS011;56035;37.534;-122.308;2023-03-13T01:44:53;1.70;;;0.10;;
68985;SDS011;56035;37.534;-122.308;2023-03-13T01:48:41;0.43;;;0.00;;
68985;SDS011;56035;37.534;-122.308;2023-03-13T01:52:09;1.40;;;0.10;;
68985;SDS011;56035;37.534;-122.308;2023-03-13T01:55:35;0.43;;;0.10;;
68985;SDS011;56035;37.534;-122.308;2023-03-13T01:59:10;0.13;;;0.00;;
68985;SDS011;56035;37.534;-122.308;2023-03-13T02:02:37;0.10;;;0.00;;
68985;SDS011;56035;37.534;-122.308;2023-03-13T02:06:04;0.63;;;0.20;;
68985;SDS011;56035;37.534;-122.308;2023-03-13T02:09:34;0.22;;;0.10;;
68985;SDS011;56035;37.534;-122.308;2023-03-13T02:13:04;0.65;;;0.15;;
68985;SDS011;56035;37.534;-122.308;2023-03-13T02:16:30;0.50;;;0.10;;
68985;SDS011;56035;37.534;-122.308;2023-03-13T02:19:57;0.23;;;0.10;;
68985;SDS011;56035;37.534;-122.308;2023-03-13T02:23:29;0.55;;;0.10;;
68985;SDS011;56035;37.534;-122.308;2023-03-13T02:27:02;0.97;;;0.07;;
68985;SDS011;56035;37.534;-122.308;2023-03-13T02:30:33;0.63;;;0.10;;
68985;SDS011;56035;37.534;-122.308;2023-03-13T02:33:58;0.33;;;0.10;;
68985;SDS011;56035;37.534;-122.308;2023-03-13T02:37:27;0.80;;;0.20;;
68985;SDS011;56035;37.534;-122.308;2023-03-13T02:40:55;0.33;;;0.10;;
68985;SDS011;56035;37.534;-122.308;2023-03-13T02:44:21;4.23;;;0.30;;
68985;SDS011;56035;37.534;-122.308;2023-03-13T02:47:46;0.53;;;0.10;;
68985;SDS011;56035;37.534;-122.308;2023-03-13T02:54:36;0.60;;;0.20;;
68985;SDS011;56035;37.534;-122.308;2023-03-13T02:58:06;1.93;;;0.10;;
68985;SDS011;56035;37.534;-122.308;2023-03-13T03:01:31;0.97;;;0.10;;
68985;SDS011;56035;37.534;-122.308;2023-03-13T03:04:56;0.60;;;0.20;;
68985;SDS011;56035;37.534;-122.308;2023-03-13T03:08:21;0.43;;;0.00;;
68985;SDS011;56035;37.534;-122.308;2023-03-13T03:11:46;1.30;;;0.40;;
68985;SDS011;56035;37.534;-122.308;2023-03-13T03:15:11;1.43;;;0.30;;
68985;SDS011;56035;37.534;-122.308;2023-03-13T03:18:39;0.40;;;0.10;;
68985;SDS011;56035;37.534;-122.308;2023-03-13T03:22:04;0.33;;;0.10;;
68985;SDS011;56035;37.534;-122.308;2023-03-13T03:25:29;1.27;;;0.10;;
68985;SDS011;56035;37.534;-122.308;2023-03-13T03:28:53;0.93;;;0.10;;
68985;SDS011;56035;37.534;-122.308;2023-03-13T03:32:18;0.30;;;0.10;;
68985;SDS011;56035;37.534;-122.308;2023-03-13T03:35:43;2.33;;;0.20;;
68985;SDS011;56035;37.534;-122.308;2023-03-13T03:39:08;1.67;;;0.20;;
68985;SDS011;56035;37.534;-122.308;2023-03-13T03:42:34;0.93;;;0.20;;
68985;SDS011;56035;37.534;-122.308;2023-03-13T03:45:59;1.30;;;0.10;;
68985;SDS011;56035;37.534;-122.308;2023-03-13T03:49:23;0.60;;;0.20;;
68985;SDS011;56035;37.534;-122.308;2023-03-13T03:52:48;0.93;;;0.30;;
68985;SDS011;56035;37.534;-122.308;2023-03-13T03:56:13;1.70;;;0.30;;
68985;SDS011;56035;37.534;-122.308;2023-03-13T03:59:38;2.90;;;0.47;;
68985;SDS011;56035;37.534;-122.308;2023-03-13T04:03:03;3.53;;;1.63;;
68985;SDS011;56035;37.534;-122.308;2023-03-13T04:06:27;4.50;;;2.10;;
68985;SDS011;56035;37.534;-122.308;2023-03-13T04:09:52;1.87;;;0.60;;
68985;SDS011;56035;37.534;-122.308;2023-03-13T04:13:17;1.00;;;0.43;;
68985;SDS011;56035;37.534;-122.308;2023-03-13T04:16:42;1.63;;;0.60;;
68985;SDS011;56035;37.534;-122.308;2023-03-13T04:20:06;1.90;;;0.20;;
68985;SDS011;56035;37.534;-122.308;2023-03-13T04:23:31;0.83;;;0.30;;
68985;SDS011;56035;37.534;-122.308;2023-03-13T04:26:56;1.37;;;0.30;;
68985;SDS011;56035;37.534;-122.308;2023-03-13T04:30:21;2.30;;;0.50;;
68985;SDS011;56035;37.534;-122.308;2023-03-13T04:33:46;0.87;;;0.50;;
68985;SDS011;56035;37.534;-122.308;2023-03-13T04:37:11;1.67;;;0.70;;
68985;SDS011;56035;37.534;-122.308;2023-03-13T04:40:35;1.67;;;0.50;;
68985;SDS011;56035;37.534;-122.308;2023-03-13T04:44:00;1.00;;;0.40;;
68985;SDS011;56035;37.534;-122.308;2023-03-13T04:47:25;0.87;;;0.30;;
68985;SDS011;56035;37.534;-122.308;2023-03-13T04:50:49;1.37;;;0.47;;
68985;SDS011;56035;37.534;-122.308;2023-03-13T04:54:14;0.83;;;0.20;;
68985;SDS011;56035;37.534;-122.308;2023-03-13T04:57:39;1.50;;;0.30;;
68985;SDS011;56035;37.534;-122.308;2023-03-13T05:01:03;1.70;;;0.83;;
68985;SDS011;56035;37.534;-122.308;2023-03-13T05:04:28;8.77;;;4.10;;
68985;SDS011;56035;37.534;-122.308;2023-03-13T05:07:53;4.23;;;3.00;;
68985;SDS011;56035;37.534;-122.308;2023-03-13T05:11:18;4.90;;;1.40;;
68985;SDS011;56035;37.534;-122.308;2023-03-13T05:14:42;3.63;;;1.40;;
68985;SDS011;56035;37.534;-122.308;2023-03-13T05:18:07;3.20;;;0.80;;
68985;SDS011;56035;37.534;-122.308;2023-03-13T05:21:32;1.30;;;0.43;;
68985;SDS011;56035;37.534;-122.308;2023-03-13T05:24:56;0.60;;;0.43;;
68985;SDS011;56035;37.534;-122.308;2023-03-13T05:28:21;1.53;;;0.50;;
68985;SDS011;56035;37.534;-122.308;2023-03-13T05:31:46;0.93;;;0.57;;
68985;SDS011;56035;37.534;-122.308;2023-03-13T05:35:11;2.67;;;0.70;;
68985;SDS011;56035;37.534;-122.308;2023-03-13T05:38:35;2.80;;;0.80;;
68985;SDS011;56035;37.534;-122.308;2023-03-13T05:42:00;1.30;;;0.60;;
68985;SDS011;56035;37.534;-122.308;2023-03-13T05:45:25;2.03;;;0.50;;
68985;SDS011;56035;37.534;-122.308;2023-03-13T05:48:49;1.97;;;0.40;;
68985;SDS011;56035;37.534;-122.308;2023-03-13T05:52:14;1.60;;;0.43;;
68985;SDS011;56035;37.534;-122.308;2023-03-13T05:55:39;3.23;;;1.37;;
68985;SDS011;56035;37.534;-122.308;2023-03-13T05:59:04;3.50;;;1.10;;
68985;SDS011;56035;37.534;-122.308;2023-03-13T06:02:29;2.47;;;0.60;;
68985;SDS011;56035;37.534;-122.308;2023-03-13T06:05:57;1.67;;;0.67;;
68985;SDS011;56035;37.534;-122.308;2023-03-13T06:09:22;2.73;;;0.90;;
68985;SDS011;56035;37.534;-122.308;2023-03-13T06:12:53;2.50;;;1.30;;
68985;SDS011;56035;37.534;-122.308;2023-03-13T06:16:18;8.50;;;2.33;;
68985;SDS011;56035;37.534;-122.308;2023-03-13T06:19:43;6.67;;;1.77;;
68985;SDS011;56035;37.534;-122.308;2023-03-13T06:23:08;2.90;;;1.70;;
68985;SDS011;56035;37.534;-122.308;2023-03-13T06:26:33;4.17;;;1.93;;
68985;SDS011;56035;37.534;-122.308;2023-03-13T06:29:57;4.07;;;2.90;;
68985;SDS011;56035;37.534;-122.308;2023-03-13T06:33:27;5.03;;;2.30;;
68985;SDS011;56035;37.534;-122.308;2023-03-13T06:36:52;3.50;;;1.50;;
68985;SDS011;56035;37.534;-122.308;2023-03-13T06:40:16;3.33;;;1.10;;
68985;SDS011;56035;37.534;-122.308;2023-03-13T06:43:41;3.20;;;0.93;;
68985;SDS011;56035;37.534;-122.308;2023-03-13T06:47:06;3.83;;;1.37;;
68985;SDS011;56035;37.534;-122.308;2023-03-13T06:50:31;3.70;;;1.30;;
68985;SDS011;56035;37.534;-122.308;2023-03-13T06:53:56;3.40;;;1.10;;
68985;SDS011;56035;37.534;-122.308;2023-03-13T06:57:20;4.70;;;2.37;;
68985;SDS011;56035;37.534;-122.308;2023-03-13T07:00:45;6.73;;;2.60;;
68985;SDS011;56035;37.534;-122.308;2023-03-13T07:04:13;6.57;;;3.20;;
68985;SDS011;56035;37.534;-122.308;2023-03-13T07:07:41;6.07;;;3.10;;
68985;SDS011;56035;37.534;-122.308;2023-03-13T07:11:09;4.75;;;2.53;;
68985;SDS011;56035;37.534;-122.308;2023-03-13T07:14:34;3.93;;;2.10;;
68985;SDS011;56035;37.534;-122.308;2023-03-13T07:17:59;6.83;;;4.00;;
68985;SDS011;56035;37.534;-122.308;2023-03-13T07:21:23;7.33;;;4.30;;
68985;SDS011;56035;37.534;-122.308;2023-03-13T07:24:48;6.97;;;4.60;;
68985;SDS011;56035;37.534;-122.308;2023-03-13T07:28:42;8.57;;;4.93;;
68985;SDS011;56035;37.534;-122.308;2023-03-13T07:32:07;6.27;;;3.63;;
68985;SDS011;56035;37.534;-122.308;2023-03-13T07:35:32;5.97;;;2.20;;
68985;SDS011;56035;37.534;-122.308;2023-03-13T07:38:59;3.17;;;1.70;;
68985;SDS011;56035;37.534;-122.308;2023-03-13T07:42:24;3.17;;;1.90;;
68985;SDS011;56035;37.534;-122.308;2023-03-13T07:46:11;3.43;;;1.60;;
68985;SDS011;56035;37.534;-122.308;2023-03-13T07:49:34;3.10;;;1.70;;
68985;SDS011;56035;37.534;-122.308;2023-03-13T07:52:59;3.80;;;2.00;;
68985;SDS011;56035;37.534;-122.308;2023-03-13T07:56:24;4.43;;;2.00;;
68985;SDS011;56035;37.534;-122.308;2023-03-13T07:59:48;4.83;;;1.87;;
68985;SDS011;56035;37.534;-122.308;2023-03-13T08:03:13;5.30;;;1.93;;
68985;SDS011;56035;37.534;-122.308;2023-03-13T08:06:38;3.77;;;1.93;;
68985;SDS011;56035;37.534;-122.308;2023-03-13T08:10:03;3.30;;;1.73;;
68985;SDS011;56035;37.534;-122.308;2023-03-13T08:13:30;3.97;;;1.77;;
68985;SDS011;56035;37.534;-122.308;2023-03-13T08:16:55;3.63;;;1.80;;
68985;SDS011;56035;37.534;-122.308;2023-03-13T08:20:21;4.70;;;1.63;;
68985;SDS011;56035;37.534;-122.308;2023-03-13T08:23:47;3.70;;;1.80;;
68985;SDS011;56035;37.534;-122.308;2023-03-13T08:27:12;5.13;;;1.60;;
68985;SDS011;56035;37.534;-122.308;2023-03-13T08:30:37;4.47;;;1.40;;
68985;SDS011;56035;37.534;-122.308;2023-03-13T08:34:03;4.80;;;1.43;;
68985;SDS011;56035;37.534;-122.308;2023-03-13T08:37:29;3.17;;;1.30;;
68985;SDS011;56035;37.534;-122.308;2023-03-13T08:40:57;3.73;;;1.50;;
68985;SDS011;56035;37.534;-122.308;2023-03-13T08:44:21;2.50;;;1.20;;
68985;SDS011;56035;37.534;-122.308;2023-03-13T08:47:46;4.20;;;1.30;;
68985;SDS011;56035;37.534;-122.308;2023-03-13T08:51:16;2.83;;;1.20;;
68985;SDS011;56035;37.534;-122.308;2023-03-13T08:54:41;6.27;;;1.63;;
68985;SDS011;56035;37.534;-122.308;2023-03-13T08:58:05;8.80;;;2.60;;
68985;SDS011;56035;37.534;-122.308;2023-03-13T09:01:31;2.30;;;1.03;;
68985;SDS011;56035;37.534;-122.308;2023-03-13T09:04:57;2.97;;;1.63;;
68985;SDS011;56035;37.534;-122.308;2023-03-13T09:08:22;2.80;;;1.03;;
68985;SDS011;56035;37.534;-122.308;2023-03-13T09:11:47;3.07;;;1.10;;
68985;SDS011;56035;37.534;-122.308;2023-03-13T09:15:12;3.60;;;1.17;;
68985;SDS011;56035;37.534;-122.308;2023-03-13T09:18:39;3.00;;;1.00;;
68985;SDS011;56035;37.534;-122.308;2023-03-13T09:22:04;2.77;;;1.23;;
68985;SDS011;56035;37.534;-122.308;2023-03-13T09:25:29;2.37;;;0.90;;
68985;SDS011;56035;37.534;-122.308;2023-03-13T09:28:54;2.10;;;1.00;;
68985;SDS011;56035;37.534;-122.308;2023-03-13T09:32:19;2.90;;;0.90;;
68985;SDS011;56035;37.534;-122.308;2023-03-13T09:35:47;2.73;;;0.90;;
68985;SDS011;56035;37.534;-122.308;2023-03-13T09:39:11;1.90;;;0.60;;
68985;SDS011;56035;37.534;-122.308;2023-03-13T09:42:45;1.97;;;0.80;;
68985;SDS011;56035;37.534;-122.308;2023-03-13T09:50:10;3.70;;;0.70;;
68985;SDS011;56035;37.534;-122.308;2023-03-13T09:57:27;1.60;;;0.50;;
68985;SDS011;56035;37.534;-122.308;2023-03-13T10:01:02;0.90;;;0.40;;
68985;SDS011;56035;37.534;-122.308;2023-03-13T10:04:31;2.67;;;0.70;;
68985;SDS011;56035;37.534;-122.308;2023-03-13T10:19:21;2.70;;;0.70;;
68985;SDS011;56035;37.534;-122.308;2023-03-13T10:23:04;2.77;;;0.80;;
68985;SDS011;56035;37.534;-122.308;2023-03-13T10:26:38;3.50;;;0.87;;
68985;SDS011;56035;37.534;-122.308;2023-03-13T10:30:21;4.43;;;0.70;;
68985;SDS011;56035;37.534;-122.308;2023-03-13T10:33:50;2.27;;;0.70;;
68985;SDS011;56035;37.534;-122.308;2023-03-13T10:38:00;4.53;;;0.63;;
68985;SDS011;56035;37.534;-122.308;2023-03-13T10:41:29;2.83;;;0.60;;
68985;SDS011;56035;37.534;-122.308;2023-03-13T10:45:00;1.97;;;0.60;;
68985;SDS011;56035;37.534;-122.308;2023-03-13T10:48:29;3.80;;;0.60;;
68985;SDS011;56035;37.534;-122.308;2023-03-13T10:51:55;4.40;;;0.67;;
68985;SDS011;56035;37.534;-122.308;2023-03-13T10:55:22;1.03;;;0.40;;
68985;SDS011;56035;37.534;-122.308;2023-03-13T10:58:51;1.67;;;0.50;;
68985;SDS011;56035;37.534;-122.308;2023-03-13T11:02:28;4.30;;;0.50;;
68985;SDS011;56035;37.534;-122.308;2023-03-13T11:06:00;2.77;;;0.40;;
68985;SDS011;56035;37.534;-122.308;2023-03-13T11:13:01;0.52;;;0.20;;
68985;SDS011;56035;37.534;-122.308;2023-03-13T11:16:35;9.90;;;1.10;;
68985;SDS011;56035;37.534;-122.308;2023-03-13T11:24:15;1.10;;;0.30;;
68985;SDS011;56035;37.534;-122.308;2023-03-13T11:42:58;1.87;;;0.27;;
68985;SDS011;56035;37.534;-122.308;2023-03-13T11:50:34;1.40;;;0.30;;
68985;SDS011;56035;37.534;-122.308;2023-03-13T12:01:40;1.45;;;0.30;;
68985;SDS011;56035;37.534;-122.308;2023-03-13T12:05:17;1.73;;;0.27;;
68985;SDS011;56035;37.534;-122.308;2023-03-13T12:08:52;3.23;;;0.30;;
68985;SDS011;56035;37.534;-122.308;2023-03-13T12:20:05;1.63;;;0.30;;
68985;SDS011;56035;37.534;-122.308;2023-03-13T12:27:26;2.30;;;0.30;;
68985;SDS011;56035;37.534;-122.308;2023-03-13T12:31:21;3.00;;;0.30;;
68985;SDS011;56035;37.534;-122.308;2023-03-13T12:35:07;2.00;;;0.13;;
68985;SDS011;56035;37.534;-122.308;2023-03-13T12:53:27;2.57;;;0.30;;
68985;SDS011;56035;37.534;-122.308;2023-03-13T13:00:46;0.37;;;0.20;;
68985;SDS011;56035;37.534;-122.308;2023-03-13T13:04:21;2.07;;;0.40;;
68985;SDS011;56035;37.534;-122.308;2023-03-13T13:07:51;1.65;;;0.30;;
68985;SDS011;56035;37.534;-122.308;2023-03-13T13:15:44;1.03;;;0.17;;
68985;SDS011;56035;37.534;-122.308;2023-03-13T13:18:54;3.00;;;0.38;;
68985;SDS011;56035;37.534;-122.308;2023-03-13T13:30:02;3.83;;;0.30;;
68985;SDS011;56035;37.534;-122.308;2023-03-13T13:33:47;2.27;;;0.30;;
68985;SDS011;56035;37.534;-122.308;2023-03-13T13:44:22;2.23;;;0.40;;
68985;SDS011;56035;37.534;-122.308;2023-03-13T13:48:43;1.27;;;0.33;;
68985;SDS011;56035;37.534;-122.308;2023-03-13T13:55:45;2.90;;;0.40;;
68985;SDS011;56035;37.534;-122.308;2023-03-13T14:02:52;1.27;;;0.27;;
68985;SDS011;56035;37.534;-122.308;2023-03-13T14:10:05;5.07;;;0.60;;
68985;SDS011;56035;37.534;-122.308;2023-03-13T14:13:30;2.33;;;0.60;;
68985;SDS011;56035;37.534;-122.308;2023-03-13T14:16:55;1.20;;;0.30;;
68985;SDS011;56035;37.534;-122.308;2023-03-13T14:20:26;2.53;;;0.47;;
68985;SDS011;56035;37.534;-122.308;2023-03-13T14:23:51;3.00;;;0.40;;
68985;SDS011;56035;37.534;-122.308;2023-03-13T14:27:22;1.20;;;0.30;;
68985;SDS011;56035;37.534;-122.308;2023-03-13T14:30:50;0.80;;;0.23;;
68985;SDS011;56035;37.534;-122.308;2023-03-13T14:34:19;0.82;;;0.30;;
68985;SDS011;56035;37.534;-122.308;2023-03-13T14:37:47;2.43;;;0.30;;
68985;SDS011;56035;37.534;-122.308;2023-03-13T14:41:21;1.38;;;0.40;;
68985;SDS011;56035;37.534;-122.308;2023-03-13T14:44:47;1.73;;;0.50;;
68985;SDS011;56035;37.534;-122.308;2023-03-13T14:48:17;1.00;;;0.40;;
68985;SDS011;56035;37.534;-122.308;2023-03-13T14:51:45;2.10;;;0.40;;
68985;SDS011;56035;37.534;-122.308;2023-03-13T14:58:45;0.50;;;0.20;;
68985;SDS011;56035;37.534;-122.308;2023-03-13T15:02:21;0.97;;;0.40;;
68985;SDS011;56035;37.534;-122.308;2023-03-13T15:06:06;0.97;;;0.40;;
68985;SDS011;56035;37.534;-122.308;2023-03-13T15:09:41;2.40;;;0.40;;
68985;SDS011;56035;37.534;-122.308;2023-03-13T15:16:57;2.47;;;0.80;;
68985;SDS011;56035;37.534;-122.308;2023-03-13T15:20:22;1.77;;;0.60;;
68985;SDS011;56035;37.534;-122.308;2023-03-13T15:23:57;2.80;;;0.60;;
68985;SDS011;56035;37.534;-122.308;2023-03-13T15:27:23;2.40;;;0.80;;
68985;SDS011;56035;37.534;-122.308;2023-03-13T15:30:49;3.30;;;1.20;;
68985;SDS011;56035;37.534;-122.308;2023-03-13T15:34:14;6.03;;;0.93;;
68985;SDS011;56035;37.534;-122.308;2023-03-13T15:37:53;2.13;;;1.03;;
68985;SDS011;56035;37.534;-122.308;2023-03-13T15:41:19;0.83;;;0.30;;
68985;SDS011;56035;37.534;-122.308;2023-03-13T15:44:44;0.60;;;0.40;;
68985;SDS011;56035;37.534;-122.308;2023-03-13T15:51:43;1.37;;;0.30;;
68985;SDS011;56035;37.534;-122.308;2023-03-13T15:55:11;1.53;;;0.30;;
68985;SDS011;56035;37.534;-122.308;2023-03-13T15:58:40;1.50;;;0.30;;
68985;SDS011;56035;37.534;-122.308;2023-03-13T16:02:16;3.50;;;0.30;;
68985;SDS011;56035;37.534;-122.308;2023-03-13T16:05:43;1.23;;;0.40;;
68985;SDS011;56035;37.534;-122.308;2023-03-13T16:09:09;7.30;;;0.70;;
68985;SDS011;56035;37.534;-122.308;2023-03-13T16:12:42;3.77;;;0.90;;
68985;SDS011;56035;37.534;-122.308;2023-03-13T16:16:17;2.63;;;0.83;;
68985;SDS011;56035;37.534;-122.308;2023-03-13T16:19:43;3.97;;;0.57;;
68985;SDS011;56035;37.534;-122.308;2023-03-13T16:23:08;2.30;;;0.50;;
68985;SDS011;56035;37.534;-122.308;2023-03-13T16:26:33;1.30;;;0.43;;
68985;SDS011;56035;37.534;-122.308;2023-03-13T16:29:58;1.20;;;0.40;;
68985;SDS011;56035;37.534;-122.308;2023-03-13T16:33:22;4.40;;;0.40;;
68985;SDS011;56035;37.534;-122.308;2023-03-13T16:36:47;1.53;;;0.50;;
68985;SDS011;56035;37.534;-122.308;2023-03-13T16:40:19;1.30;;;0.50;;
68985;SDS011;56035;37.534;-122.308;2023-03-13T16:43:46;1.77;;;0.40;;
68985;SDS011;56035;37.534;-122.308;2023-03-13T16:47:16;1.73;;;0.40;;
68985;SDS011;56035;37.534;-122.308;2023-03-13T16:50:43;4.90;;;1.07;;
68985;SDS011;56035;37.534;-122.308;2023-03-13T16:54:08;1.80;;;0.40;;
68985;SDS011;56035;37.534;-122.308;2023-03-13T16:57:33;2.63;;;0.47;;
68985;SDS011;56035;37.534;-122.308;2023-03-13T17:00:57;1.37;;;0.40;;
68985;SDS011;56035;37.534;-122.308;2023-03-13T17:04:24;1.70;;;0.47;;
68985;SDS011;56035;37.534;-122.308;2023-03-13T17:07:50;1.03;;;0.10;;
68985;SDS011;56035;37.534;-122.308;2023-03-13T17:11:16;0.32;;;0.20;;
68985;SDS011;56035;37.534;-122.308;2023-03-13T17:14:42;3.20;;;0.30;;
68985;SDS011;56035;37.534;-122.308;2023-03-13T17:18:07;0.75;;;0.20;;
68985;SDS011;56035;37.534;-122.308;2023-03-13T17:21:37;0.55;;;0.20;;
68985;SDS011;56035;37.534;-122.308;2023-03-13T17:25:01;1.17;;;0.20;;
68985;SDS011;56035;37.534;-122.308;2023-03-13T17:28:26;1.00;;;0.30;;
68985;SDS011;56035;37.534;-122.308;2023-03-13T17:31:51;1.38;;;0.43;;
68985;SDS011;56035;37.534;-122.308;2023-03-13T17:35:16;1.07;;;0.40;;
68985;SDS011;56035;37.534;-122.308;2023-03-13T17:38:43;0.32;;;0.10;;
68985;SDS011;56035;37.534;-122.308;2023-03-13T17:42:09;1.58;;;0.28;;
68985;SDS011;56035;37.534;-122.308;2023-03-13T17:45:34;1.02;;;0.20;;
68985;SDS011;56035;37.534;-122.308;2023-03-13T17:49:06;1.25;;;0.30;;
68985;SDS011;56035;37.534;-122.308;2023-03-13T17:52:41;1.40;;;0.20;;
68985;SDS011;56035;37.534;-122.308;2023-03-13T17:56:28;1.83;;;0.32;;
68985;SDS011;56035;37.534;-122.308;2023-03-13T17:59:51;1.35;;;0.38;;
68985;SDS011;56035;37.534;-122.308;2023-03-13T18:03:16;3.05;;;0.38;;
68985;SDS011;56035;37.534;-122.308;2023-03-13T18:06:42;1.52;;;0.30;;
68985;SDS011;56035;37.534;-122.308;2023-03-13T18:10:14;2.33;;;0.32;;
68985;SDS011;56035;37.534;-122.308;2023-03-13T18:13:42;3.72;;;0.50;;
68985;SDS011;56035;37.534;-122.308;2023-03-13T18:17:14;3.30;;;0.50;;
68985;SDS011;56035;37.534;-122.308;2023-03-13T18:20:41;2.33;;;0.40;;
68985;SDS011;56035;37.534;-122.308;2023-03-13T18:24:07;2.95;;;0.38;;
68985;SDS011;56035;37.534;-122.308;2023-03-13T18:27:32;3.33;;;0.40;;
68985;SDS011;56035;37.534;-122.308;2023-03-13T18:30:56;1.50;;;0.35;;
68985;SDS011;56035;37.534;-122.308;2023-03-13T18:34:23;2.33;;;0.47;;
68985;SDS011;56035;37.534;-122.308;2023-03-13T18:37:48;1.45;;;0.40;;
68985;SDS011;56035;37.534;-122.308;2023-03-13T18:41:13;2.67;;;0.40;;
68985;SDS011;56035;37.534;-122.308;2023-03-13T18:44:38;2.78;;;0.30;;
68985;SDS011;56035;37.534;-122.308;2023-03-13T18:48:04;1.38;;;0.40;;
68985;SDS011;56035;37.534;-122.308;2023-03-13T18:51:30;0.22;;;0.10;;
68985;SDS011;56035;37.534;-122.308;2023-03-13T18:54:54;0.57;;;0.20;;
68985;SDS011;56035;37.534;-122.308;2023-03-13T18:58:19;1.88;;;0.50;;
68985;SDS011;56035;37.534;-122.308;2023-03-13T19:01:45;1.10;;;0.13;;
68985;SDS011;56035;37.534;-122.308;2023-03-13T19:05:10;1.35;;;0.52;;
68985;SDS011;56035;37.534;-122.308;2023-03-13T19:08:53;0.57;;;0.20;;
68985;SDS011;56035;37.534;-122.308;2023-03-13T19:12:18;1.57;;;0.40;;
68985;SDS011;56035;37.534;-122.308;2023-03-13T19:15:43;1.67;;;0.35;;
68985;SDS011;56035;37.534;-122.308;2023-03-13T19:19:16;0.63;;;0.20;;
68985;SDS011;56035;37.534;-122.308;2023-03-13T19:22:42;1.42;;;0.20;;
68985;SDS011;56035;37.534;-122.308;2023-03-13T19:26:41;2.97;;;0.40;;
68985;SDS011;56035;37.534;-122.308;2023-03-13T19:29:58;1.73;;;0.30;;
68985;SDS011;56035;37.534;-122.308;2023-03-13T19:33:23;0.85;;;0.30;;
68985;SDS011;56035;37.534;-122.308;2023-03-13T19:36:48;1.50;;;0.38;;
68985;SDS011;56035;37.534;-122.308;2023-03-13T19:40:20;1.88;;;0.40;;
68985;SDS011;56035;37.534;-122.308;2023-03-13T19:43:45;2.45;;;0.45;;
68985;SDS011;56035;37.534;-122.308;2023-03-13T19:47:12;1.58;;;0.40;;
68985;SDS011;56035;37.534;-122.308;2023-03-13T19:50:37;3.80;;;1.15;;
68985;SDS011;56035;37.534;-122.308;2023-03-13T19:54:02;3.35;;;0.50;;
68985;SDS011;56035;37.534;-122.308;2023-03-13T19:57:28;1.83;;;0.45;;
68985;SDS011;56035;37.534;-122.308;2023-03-13T20:00:52;2.75;;;0.60;;
68985;SDS011;56035;37.534;-122.308;2023-03-13T20:04:19;2.90;;;0.40;;
68985;SDS011;56035;37.534;-122.308;2023-03-13T20:07:44;3.63;;;0.77;;
68985;SDS011;56035;37.534;-122.308;2023-03-13T20:11:10;3.88;;;0.50;;
68985;SDS011;56035;37.534;-122.308;2023-03-13T20:14:34;1.35;;;0.25;;
68985;SDS011;56035;37.534;-122.308;2023-03-13T20:17:59;1.00;;;0.30;;
68985;SDS011;56035;37.534;-122.308;2023-03-13T20:21:31;1.85;;;0.40;;
68985;SDS011;56035;37.534;-122.308;2023-03-13T20:24:56;1.75;;;0.30;;
68985;SDS011;56035;37.534;-122.308;2023-03-13T20:28:25;1.75;;;0.45;;
68985;SDS011;56035;37.534;-122.308;2023-03-13T20:31:50;1.63;;;0.30;;
68985;SDS011;56035;37.534;-122.308;2023-03-13T20:35:14;2.05;;;0.70;;
68985;SDS011;56035;37.534;-122.308;2023-03-13T20:38:40;3.78;;;0.60;;
68985;SDS011;56035;37.534;-122.308;2023-03-13T20:42:06;3.10;;;0.70;;
68985;SDS011;56035;37.534;-122.308;2023-03-13T20:45:31;4.13;;;0.80;;
68985;SDS011;56035;37.534;-122.308;2023-03-13T20:48:56;4.32;;;0.90;;
68985;SDS011;56035;37.534;-122.308;2023-03-13T20:52:21;4.70;;;1.08;;
68985;SDS011;56035;37.534;-122.308;2023-03-13T20:55:46;3.03;;;0.80;;
68985;SDS011;56035;37.534;-122.308;2023-03-13T20:59:11;3.88;;;1.10;;
68985;SDS011;56035;37.534;-122.308;2023-03-13T21:02:37;6.05;;;1.45;;
68985;SDS011;56035;37.534;-122.308;2023-03-13T21:06:11;3.15;;;0.75;;
68985;SDS011;56035;37.534;-122.308;2023-03-13T21:09:36;3.05;;;0.65;;
68985;SDS011;56035;37.534;-122.308;2023-03-13T21:13:04;2.72;;;0.98;;
68985;SDS011;56035;37.534;-122.308;2023-03-13T21:16:29;4.82;;;0.93;;
68985;SDS011;56035;37.534;-122.308;2023-03-13T21:19:54;3.10;;;0.65;;
68985;SDS011;56035;37.534;-122.308;2023-03-13T21:23:19;2.53;;;1.02;;
68985;SDS011;56035;37.534;-122.308;2023-03-13T21:26:44;4.13;;;0.75;;
68985;SDS011;56035;37.534;-122.308;2023-03-13T21:30:10;4.65;;;1.15;;
68985;SDS011;56035;37.534;-122.308;2023-03-13T21:33:39;4.68;;;1.08;;
68985;SDS011;56035;37.534;-122.308;2023-03-13T21:37:04;7.55;;;0.65;;
68985;SDS011;56035;37.534;-122.308;2023-03-13T21:40:28;5.00;;;0.80;;
68985;SDS011;56035;37.534;-122.308;2023-03-13T21:43:53;5.18;;;0.82;;
68985;SDS011;56035;37.534;-122.308;2023-03-13T21:47:18;6.05;;;0.80;;
68985;SDS011;56035;37.534;-122.308;2023-03-13T21:50:44;5.28;;;0.80;;
68985;SDS011;56035;37.534;-122.308;2023-03-13T21:54:08;2.72;;;0.50;;
68985;SDS011;56035;37.534;-122.308;2023-03-13T21:57:36;3.85;;;0.70;;
68985;SDS011;56035;37.534;-122.308;2023-03-13T22:01:00;4.70;;;0.90;;
68985;SDS011;56035;37.534;-122.308;2023-03-13T22:04:25;3.15;;;0.75;;